sensor_id;sensor_type;location;lat;lon;timestamp;pressure;altitude;pressure_sealevel;temperature;humidity
4012;BME280;2020;48.682;9.024;2023-09-18T00:00:16;95921.72;;;19.96;68.96
4012;BME280;2020;48.682;9.024;2023-09-18T00:02:42;95918.44;;;19.82;69.44
4012;BME280;2020;48.682;9.024;2023-09-18T00:05:08;95911.06;;;19.61;71.21
4012;BME280;2020;48.682;9.024;2023-09-18T00:07:33;95905.41;;;19.45;71.80
4012;BME280;2020;48.682;9.024;2023-09-18T00:09:58;95910.28;;;19.29;72.71
4012;BME280;2020;48.682;9.024;2023-09-18T00:12:24;95902.19;;;19.43;72.30
4012;BME280;2020;48.682;9.024;2023-09-18T00:14:50;95897.22;;;19.35;73.01
4012;BME280;2020;48.682;9.024;2023-09-18T00:17:15;95896.59;;;19.51;71.44
4012;BME280;2020;48.682;9.024;2023-09-18T00:19:42;95880.25;;;19.31;72.70
4012;BME280;2020;48.682;9.024;2023-09-18T00:22:07;95881.97;;;19.37;72.45
4012;BME280;2020;48.682;9.024;2023-09-18T00:24:33;95892.22;;;19.45;71.64
4012;BME280;2020;48.682;9.024;2023-09-18T00:26:59;95890.59;;;19.56;71.90
4012;BME280;2020;48.682;9.024;2023-09-18T00:29:24;95883.16;;;19.53;71.57
4012;BME280;2020;48.682;9.024;2023-09-18T00:31:49;95886.22;;;19.38;73.14
4012;BME280;2020;48.682;9.024;2023-09-18T00:34:14;95878.06;;;19.39;72.84
4012;BME280;2020;48.682;9.024;2023-09-18T00:36:40;95880.50;;;19.41;72.85
4012;BME280;2020;48.682;9.024;2023-09-18T00:39:05;95883.25;;;19.46;72.71
4012;BME280;2020;48.682;9.024;2023-09-18T00:41:30;95883.97;;;19.53;72.23
4012;BME280;2020;48.682;9.024;2023-09-18T00:43:55;95887.63;;;19.52;72.03
4012;BME280;2020;48.682;9.024;2023-09-18T00:46:21;95881.00;;;19.62;72.07
4012;BME280;2020;48.682;9.024;2023-09-18T00:48:48;95877.09;;;19.52;72.21
4012;BME280;2020;48.682;9.024;2023-09-18T00:51:13;95879.16;;;19.50;72.52
4012;BME280;2020;48.682;9.024;2023-09-18T00:53:43;95878.13;;;19.51;72.73
4012;BME280;2020;48.682;9.024;2023-09-18T00:56:10;95881.56;;;19.21;74.10
4012;BME280;2020;48.682;9.024;2023-09-18T00:58:35;95877.75;;;19.05;75.32
4012;BME280;2020;48.682;9.024;2023-09-18T01:01:00;95878.22;;;18.95;75.53
4012;BME280;2020;48.682;9.024;2023-09-18T01:03:26;95872.25;;;18.88;76.20
4012;BME280;2020;48.682;9.024;2023-09-18T01:05:51;95857.63;;;18.74;76.88
4012;BME280;2020;48.682;9.024;2023-09-18T01:08:16;95878.63;;;18.99;75.76
4012;BME280;2020;48.682;9.024;2023-09-18T01:10:53;95869.34;;;18.78;76.92
4012;BME280;2020;48.682;9.024;2023-09-18T01:13:28;95874.56;;;18.96;76.24
4012;BME280;2020;48.682;9.024;2023-09-18T01:16:02;95870.16;;;18.97;76.06
4012;BME280;2020;48.682;9.024;2023-09-18T01:18:27;95863.03;;;18.79;77.12
4012;BME280;2020;48.682;9.024;2023-09-18T01:20:53;95867.34;;;18.92;76.70
4012;BME280;2020;48.682;9.024;2023-09-18T01:23:18;95859.94;;;19.00;75.75
4012;BME280;2020;48.682;9.024;2023-09-18T01:25:43;95851.00;;;19.02;75.64
4012;BME280;2020;48.682;9.024;2023-09-18T01:28:08;95856.53;;;19.12;74.39
4012;BME280;2020;48.682;9.024;2023-09-18T01:30:34;95868.53;;;19.26;74.19
4012;BME280;2020;48.682;9.024;2023-09-18T01:33:01;95875.53;;;19.33;73.32
4012;BME280;2020;48.682;9.024;2023-09-18T01:35:27;95897.50;;;19.45;73.35
4012;BME280;2020;48.682;9.024;2023-09-18T01:37:59;95974.63;;;19.28;74.65
4012;BME280;2020;48.682;9.024;2023-09-18T01:40:25;95952.94;;;19.26;73.18
4012;BME280;2020;48.682;9.024;2023-09-18T01:42:51;95946.84;;;19.56;69.88
4012;BME280;2020;48.682;9.024;2023-09-18T01:45:17;95947.44;;;19.70;69.13
4012;BME280;2020;48.682;9.024;2023-09-18T01:47:42;95933.59;;;19.75;69.70
4012;BME280;2020;48.682;9.024;2023-09-18T01:50:08;95931.53;;;19.77;71.41
4012;BME280;2020;48.682;9.024;2023-09-18T01:52:33;95919.31;;;19.52;71.77
4012;BME280;2020;48.682;9.024;2023-09-18T01:55:02;95873.16;;;19.43;75.92
4012;BME280;2020;48.682;9.024;2023-09-18T01:57:29;95807.19;;;19.00;79.15
4012;BME280;2020;48.682;9.024;2023-09-18T01:59:54;95780.69;;;18.95;83.04
4012;BME280;2020;48.682;9.024;2023-09-18T02:02:19;95753.69;;;19.00;85.45
4012;BME280;2020;48.682;9.024;2023-09-18T02:04:45;95761.34;;;19.02;87.37
4012;BME280;2020;48.682;9.024;2023-09-18T02:07:10;95782.81;;;19.05;87.78
4012;BME280;2020;48.682;9.024;2023-09-18T02:09:35;95791.38;;;19.00;87.84
4012;BME280;2020;48.682;9.024;2023-09-18T02:12:01;95803.88;;;18.75;89.24
4012;BME280;2020;48.682;9.024;2023-09-18T02:14:26;95817.06;;;18.75;85.74
4012;BME280;2020;48.682;9.024;2023-09-18T02:16:51;95819.22;;;18.66;86.19
4012;BME280;2020;48.682;9.024;2023-09-18T02:19:17;95819.25;;;18.78;84.44
4012;BME280;2020;48.682;9.024;2023-09-18T02:21:43;95813.25;;;18.70;87.04
4012;BME280;2020;48.682;9.024;2023-09-18T02:24:09;95818.53;;;18.70;87.22
4012;BME280;2020;48.682;9.024;2023-09-18T02:26:35;95815.31;;;18.68;86.31
4012;BME280;2020;48.682;9.024;2023-09-18T02:29:02;95816.63;;;18.78;84.18
4012;BME280;2020;48.682;9.024;2023-09-18T02:31:28;95822.03;;;18.83;82.45
4012;BME280;2020;48.682;9.024;2023-09-18T02:33:54;95831.78;;;18.82;81.48
4012;BME280;2020;48.682;9.024;2023-09-18T02:36:19;95846.69;;;18.89;78.16
4012;BME280;2020;48.682;9.024;2023-09-18T02:38:44;95848.19;;;18.96;79.51
4012;BME280;2020;48.682;9.024;2023-09-18T02:41:10;95857.59;;;18.92;80.52
4012;BME280;2020;48.682;9.024;2023-09-18T02:43:35;95858.47;;;18.86;80.33
4012;BME280;2020;48.682;9.024;2023-09-18T02:46:02;95850.72;;;18.91;81.41
4012;BME280;2020;48.682;9.024;2023-09-18T02:48:28;95841.06;;;18.85;80.99
4012;BME280;2020;48.682;9.024;2023-09-18T02:50:53;95836.50;;;18.92;79.71
4012;BME280;2020;48.682;9.024;2023-09-18T02:53:20;95841.44;;;18.89;80.71
4012;BME280;2020;48.682;9.024;2023-09-18T02:55:47;95828.72;;;18.67;81.53
4012;BME280;2020;48.682;9.024;2023-09-18T02:58:12;95818.19;;;18.67;83.83
4012;BME280;2020;48.682;9.024;2023-09-18T03:00:42;95815.75;;;18.65;84.02
4012;BME280;2020;48.682;9.024;2023-09-18T03:03:08;95803.78;;;18.51;82.20
4012;BME280;2020;48.682;9.024;2023-09-18T03:05:33;95807.72;;;18.60;83.63
4012;BME280;2020;48.682;9.024;2023-09-18T03:07:59;95796.47;;;18.53;83.15
4012;BME280;2020;48.682;9.024;2023-09-18T03:10:24;95808.06;;;18.33;86.86
4012;BME280;2020;48.682;9.024;2023-09-18T03:12:49;95806.94;;;18.22;88.35
4012;BME280;2020;48.682;9.024;2023-09-18T03:15:15;95813.75;;;18.30;88.78
4012;BME280;2020;48.682;9.024;2023-09-18T03:17:40;95814.19;;;18.27;88.80
4012;BME280;2020;48.682;9.024;2023-09-18T03:20:07;95811.56;;;18.08;90.32
4012;BME280;2020;48.682;9.024;2023-09-18T03:22:33;95818.16;;;18.18;90.38
4012;BME280;2020;48.682;9.024;2023-09-18T03:24:58;95818.94;;;18.37;89.36
4012;BME280;2020;48.682;9.024;2023-09-18T03:27:23;95833.78;;;18.50;88.49
4012;BME280;2020;48.682;9.024;2023-09-18T03:29:54;95824.41;;;18.54;87.02
4012;BME280;2020;48.682;9.024;2023-09-18T03:32:19;95849.88;;;18.60;87.84
4012;BME280;2020;48.682;9.024;2023-09-18T03:34:44;95868.72;;;18.64;87.72
4012;BME280;2020;48.682;9.024;2023-09-18T03:37:09;95886.78;;;18.60;87.38
4012;BME280;2020;48.682;9.024;2023-09-18T03:39:35;95901.63;;;18.54;88.31
4012;BME280;2020;48.682;9.024;2023-09-18T03:42:00;95922.06;;;18.59;88.45
4012;BME280;2020;48.682;9.024;2023-09-18T03:44:25;95928.66;;;18.50;88.59
4012;BME280;2020;48.682;9.024;2023-09-18T03:46:50;95942.53;;;18.38;87.73
4012;BME280;2020;48.682;9.024;2023-09-18T03:49:16;95952.34;;;18.31;84.95
4012;BME280;2020;48.682;9.024;2023-09-18T03:51:41;95960.38;;;18.36;84.69
4012;BME280;2020;48.682;9.024;2023-09-18T03:54:06;95962.44;;;18.34;85.56
4012;BME280;2020;48.682;9.024;2023-09-18T03:56:31;95954.25;;;18.42;84.47
4012;BME280;2020;48.682;9.024;2023-09-18T03:58:57;95949.41;;;18.39;84.62
4012;BME280;2020;48.682;9.024;2023-09-18T04:01:23;95942.69;;;18.44;84.10
4012;BME280;2020;48.682;9.024;2023-09-18T04:03:49;95928.78;;;18.36;84.55
4012;BME280;2020;48.682;9.024;2023-09-18T04:06:14;95921.03;;;18.41;85.63
4012;BME280;2020;48.682;9.024;2023-09-18T04:08:39;95912.81;;;18.31;85.06
4012;BME280;2020;48.682;9.024;2023-09-18T04:11:04;95907.72;;;18.36;84.30
4012;BME280;2020;48.682;9.024;2023-09-18T04:13:30;95882.69;;;18.27;84.83
4012;BME280;2020;48.682;9.024;2023-09-18T04:15:55;95873.47;;;18.36;84.01
4012;BME280;2020;48.682;9.024;2023-09-18T04:18:22;95873.91;;;18.33;84.97
4012;BME280;2020;48.682;9.024;2023-09-18T04:20:47;95863.94;;;18.35;84.59
4012;BME280;2020;48.682;9.024;2023-09-18T04:23:21;95857.06;;;18.34;85.34
4012;BME280;2020;48.682;9.024;2023-09-18T04:25:47;95839.22;;;18.36;84.87
4012;BME280;2020;48.682;9.024;2023-09-18T04:28:13;95823.03;;;18.33;85.10
4012;BME280;2020;48.682;9.024;2023-09-18T04:30:39;95810.53;;;18.28;84.93
4012;BME280;2020;48.682;9.024;2023-09-18T04:33:04;95812.44;;;18.39;84.87
4012;BME280;2020;48.682;9.024;2023-09-18T04:35:29;95810.09;;;18.31;85.98
4012;BME280;2020;48.682;9.024;2023-09-18T04:37:56;95820.34;;;18.21;86.40
4012;BME280;2020;48.682;9.024;2023-09-18T04:40:22;95811.47;;;18.15;88.39
4012;BME280;2020;48.682;9.024;2023-09-18T04:42:49;95804.59;;;18.14;89.60
4012;BME280;2020;48.682;9.024;2023-09-18T04:45:14;95807.91;;;18.09;90.46
4012;BME280;2020;48.682;9.024;2023-09-18T04:47:41;95799.78;;;18.11;89.88
4012;BME280;2020;48.682;9.024;2023-09-18T04:50:06;95809.56;;;18.22;89.54
4012;BME280;2020;48.682;9.024;2023-09-18T04:52:33;95808.66;;;18.17;88.70
4012;BME280;2020;48.682;9.024;2023-09-18T04:54:59;95810.09;;;18.12;89.49
4012;BME280;2020;48.682;9.024;2023-09-18T04:57:24;95815.22;;;18.07;90.88
4012;BME280;2020;48.682;9.024;2023-09-18T04:59:49;95816.84;;;18.08;89.84
4012;BME280;2020;48.682;9.024;2023-09-18T05:02:15;95818.28;;;18.04;91.83
4012;BME280;2020;48.682;9.024;2023-09-18T05:04:41;95809.63;;;17.97;90.82
4012;BME280;2020;48.682;9.024;2023-09-18T05:07:07;95810.06;;;17.94;91.17
4012;BME280;2020;48.682;9.024;2023-09-18T05:09:32;95819.00;;;17.93;90.73
4012;BME280;2020;48.682;9.024;2023-09-18T05:11:57;95811.69;;;17.95;89.86
4012;BME280;2020;48.682;9.024;2023-09-18T05:14:23;95832.41;;;17.84;90.34
4012;BME280;2020;48.682;9.024;2023-09-18T05:16:48;95848.63;;;17.81;90.99
4012;BME280;2020;48.682;9.024;2023-09-18T05:19:13;95871.28;;;17.82;89.22
4012;BME280;2020;48.682;9.024;2023-09-18T05:21:39;95846.59;;;17.83;88.94
4012;BME280;2020;48.682;9.024;2023-09-18T05:24:04;95842.19;;;17.77;89.51
4012;BME280;2020;48.682;9.024;2023-09-18T05:26:29;95828.75;;;17.86;89.71
4012;BME280;2020;48.682;9.024;2023-09-18T05:28:55;95845.13;;;17.88;89.03
4012;BME280;2020;48.682;9.024;2023-09-18T05:31:20;95839.50;;;17.84;89.82
4012;BME280;2020;48.682;9.024;2023-09-18T05:33:46;95851.00;;;17.90;89.28
4012;BME280;2020;48.682;9.024;2023-09-18T05:36:13;95858.72;;;17.84;89.22
4012;BME280;2020;48.682;9.024;2023-09-18T05:38:38;95857.03;;;17.97;89.26
4012;BME280;2020;48.682;9.024;2023-09-18T05:41:03;95864.31;;;17.95;88.23
4012;BME280;2020;48.682;9.024;2023-09-18T05:43:30;95854.56;;;18.02;87.83
4012;BME280;2020;48.682;9.024;2023-09-18T05:45:56;95854.97;;;17.99;89.41
4012;BME280;2020;48.682;9.024;2023-09-18T05:48:21;95846.25;;;17.98;88.68
4012;BME280;2020;48.682;9.024;2023-09-18T05:50:46;95860.19;;;18.06;88.01
4012;BME280;2020;48.682;9.024;2023-09-18T05:53:13;95852.97;;;18.01;88.16
4012;BME280;2020;48.682;9.024;2023-09-18T05:55:38;95838.78;;;18.02;88.79
4012;BME280;2020;48.682;9.024;2023-09-18T05:58:04;95835.56;;;18.00;89.04
4012;BME280;2020;48.682;9.024;2023-09-18T06:00:30;95848.09;;;17.98;88.93
4012;BME280;2020;48.682;9.024;2023-09-18T06:02:58;95842.25;;;17.96;89.88
4012;BME280;2020;48.682;9.024;2023-09-18T06:05:24;95835.13;;;18.03;90.10
4012;BME280;2020;48.682;9.024;2023-09-18T06:07:49;95835.56;;;18.00;90.52
4012;BME280;2020;48.682;9.024;2023-09-18T06:10:15;95843.25;;;17.95;90.68
4012;BME280;2020;48.682;9.024;2023-09-18T06:12:40;95836.50;;;17.80;92.07
4012;BME280;2020;48.682;9.024;2023-09-18T06:15:09;95840.72;;;17.81;92.23
4012;BME280;2020;48.682;9.024;2023-09-18T06:17:39;95848.63;;;17.81;92.38
4012;BME280;2020;48.682;9.024;2023-09-18T06:20:06;95852.72;;;17.77;93.26
4012;BME280;2020;48.682;9.024;2023-09-18T06:22:35;95868.66;;;17.82;93.00
4012;BME280;2020;48.682;9.024;2023-09-18T06:25:00;95861.69;;;17.69;93.92
4012;BME280;2020;48.682;9.024;2023-09-18T06:27:25;95843.38;;;17.81;94.03
4012;BME280;2020;48.682;9.024;2023-09-18T06:29:51;95850.25;;;17.82;95.14
4012;BME280;2020;48.682;9.024;2023-09-18T06:32:16;95856.63;;;17.93;94.86
4012;BME280;2020;48.682;9.024;2023-09-18T06:34:41;95866.38;;;17.93;93.14
4012;BME280;2020;48.682;9.024;2023-09-18T06:37:10;95863.16;;;17.91;94.26
4012;BME280;2020;48.682;9.024;2023-09-18T06:39:38;95856.69;;;17.87;94.20
4012;BME280;2020;48.682;9.024;2023-09-18T06:42:03;95860.75;;;17.82;93.26
4012;BME280;2020;48.682;9.024;2023-09-18T06:44:28;95863.56;;;17.88;92.38
4012;BME280;2020;48.682;9.024;2023-09-18T06:46:54;95874.50;;;17.84;92.04
4012;BME280;2020;48.682;9.024;2023-09-18T06:49:19;95867.63;;;17.83;91.20
4012;BME280;2020;48.682;9.024;2023-09-18T06:51:44;95874.69;;;17.90;90.92
4012;BME280;2020;48.682;9.024;2023-09-18T06:54:10;95884.56;;;17.94;91.37
4012;BME280;2020;48.682;9.024;2023-09-18T06:56:35;95889.63;;;17.96;90.59
4012;BME280;2020;48.682;9.024;2023-09-18T06:59:00;95889.59;;;18.03;91.15
4012;BME280;2020;48.682;9.024;2023-09-18T07:01:26;95898.75;;;18.00;90.08
4012;BME280;2020;48.682;9.024;2023-09-18T07:03:53;95887.78;;;18.03;88.24
4012;BME280;2020;48.682;9.024;2023-09-18T07:06:18;95881.19;;;18.12;87.92
4012;BME280;2020;48.682;9.024;2023-09-18T07:08:45;95879.16;;;18.15;87.33
4012;BME280;2020;48.682;9.024;2023-09-18T07:11:11;95879.94;;;18.15;88.04
4012;BME280;2020;48.682;9.024;2023-09-18T07:13:37;95868.97;;;18.18;86.68
4012;BME280;2020;48.682;9.024;2023-09-18T07:16:03;95872.59;;;18.24;85.68
4012;BME280;2020;48.682;9.024;2023-09-18T07:18:28;95880.63;;;18.29;85.92
4012;BME280;2020;48.682;9.024;2023-09-18T07:20:53;95871.72;;;18.30;84.16
4012;BME280;2020;48.682;9.024;2023-09-18T07:23:19;95859.13;;;18.32;85.58
4012;BME280;2020;48.682;9.024;2023-09-18T07:25:47;95888.25;;;18.37;84.74
4012;BME280;2020;48.682;9.024;2023-09-18T07:28:12;95896.00;;;18.32;83.43
4012;BME280;2020;48.682;9.024;2023-09-18T07:30:42;95911.13;;;18.37;84.52
4012;BME280;2020;48.682;9.024;2023-09-18T07:33:08;95897.91;;;18.44;86.76
4012;BME280;2020;48.682;9.024;2023-09-18T07:35:34;95923.50;;;18.36;85.14
4012;BME280;2020;48.682;9.024;2023-09-18T07:38:00;95933.75;;;18.26;85.20
4012;BME280;2020;48.682;9.024;2023-09-18T07:40:25;95919.56;;;18.27;86.52
4012;BME280;2020;48.682;9.024;2023-09-18T07:42:50;95933.63;;;18.39;87.64
4012;BME280;2020;48.682;9.024;2023-09-18T07:45:15;95933.47;;;18.34;85.71
4012;BME280;2020;48.682;9.024;2023-09-18T07:47:41;95929.97;;;18.40;88.27
4012;BME280;2020;48.682;9.024;2023-09-18T07:50:06;95932.75;;;18.46;88.18
4012;BME280;2020;48.682;9.024;2023-09-18T07:52:32;95929.53;;;18.44;86.71
4012;BME280;2020;48.682;9.024;2023-09-18T07:54:58;95936.84;;;18.41;86.17
4012;BME280;2020;48.682;9.024;2023-09-18T07:57:23;95930.53;;;18.42;86.86
4012;BME280;2020;48.682;9.024;2023-09-18T07:59:49;95937.28;;;18.38;86.05
4012;BME280;2020;48.682;9.024;2023-09-18T08:02:15;95934.41;;;18.40;85.88
4012;BME280;2020;48.682;9.024;2023-09-18T08:04:40;95943.31;;;18.39;85.66
4012;BME280;2020;48.682;9.024;2023-09-18T08:07:05;95939.31;;;18.36;85.37
4012;BME280;2020;48.682;9.024;2023-09-18T08:09:32;95948.25;;;18.35;86.56
4012;BME280;2020;48.682;9.024;2023-09-18T08:12:01;95954.31;;;18.36;84.62
4012;BME280;2020;48.682;9.024;2023-09-18T08:14:26;95945.03;;;18.33;84.28
4012;BME280;2020;48.682;9.024;2023-09-18T08:16:56;95960.09;;;18.26;84.40
4012;BME280;2020;48.682;9.024;2023-09-18T08:19:22;95968.25;;;18.18;84.78
4012;BME280;2020;48.682;9.024;2023-09-18T08:21:48;95980.69;;;18.10;86.32
4012;BME280;2020;48.682;9.024;2023-09-18T08:24:13;95992.66;;;18.06;85.86
4012;BME280;2020;48.682;9.024;2023-09-18T08:26:39;95980.75;;;17.97;87.91
4012;BME280;2020;48.682;9.024;2023-09-18T08:29:04;95996.38;;;17.92;89.72
4012;BME280;2020;48.682;9.024;2023-09-18T08:31:30;95998.06;;;17.79;90.34
4012;BME280;2020;48.682;9.024;2023-09-18T08:33:56;95998.31;;;17.71;92.10
4012;BME280;2020;48.682;9.024;2023-09-18T08:36:22;96008.38;;;17.49;93.78
4012;BME280;2020;48.682;9.024;2023-09-18T08:38:47;96004.81;;;17.30;96.11
4012;BME280;2020;48.682;9.024;2023-09-18T08:41:12;95989.44;;;17.27;98.56
4012;BME280;2020;48.682;9.024;2023-09-18T08:43:42;95974.50;;;17.20;99.02
4012;BME280;2020;48.682;9.024;2023-09-18T08:46:08;95978.50;;;17.30;100.00
4012;BME280;2020;48.682;9.024;2023-09-18T08:48:34;95986.03;;;17.19;99.25
4012;BME280;2020;48.682;9.024;2023-09-18T08:51:04;95995.63;;;16.93;99.72
4012;BME280;2020;48.682;9.024;2023-09-18T08:53:34;95987.94;;;16.99;99.86
4012;BME280;2020;48.682;9.024;2023-09-18T08:56:00;95989.94;;;16.96;100.00
4012;BME280;2020;48.682;9.024;2023-09-18T08:58:32;95999.50;;;16.84;100.00
4012;BME280;2020;48.682;9.024;2023-09-18T09:00:59;96009.81;;;16.79;100.00
4012;BME280;2020;48.682;9.024;2023-09-18T09:03:26;96000.53;;;16.70;100.00
4012;BME280;2020;48.682;9.024;2023-09-18T09:05:51;95994.88;;;16.66;100.00
4012;BME280;2020;48.682;9.024;2023-09-18T09:08:17;95985.78;;;16.69;100.00
4012;BME280;2020;48.682;9.024;2023-09-18T09:10:42;95996.50;;;16.60;100.00
4012;BME280;2020;48.682;9.024;2023-09-18T09:13:07;95995.88;;;16.65;100.00
4012;BME280;2020;48.682;9.024;2023-09-18T09:15:46;95994.88;;;16.73;100.00
4012;BME280;2020;48.682;9.024;2023-09-18T09:18:13;95990.63;;;16.72;100.00
4012;BME280;2020;48.682;9.024;2023-09-18T09:20:40;95999.72;;;16.76;100.00
4012;BME280;2020;48.682;9.024;2023-09-18T09:23:08;96009.41;;;16.82;100.00
4012;BME280;2020;48.682;9.024;2023-09-18T09:25:34;95990.56;;;16.99;100.00
4012;BME280;2020;48.682;9.024;2023-09-18T09:28:06;96004.09;;;17.09;100.00
4012;BME280;2020;48.682;9.024;2023-09-18T09:30:34;96011.31;;;17.20;100.00
4012;BME280;2020;48.682;9.024;2023-09-18T09:33:01;95996.75;;;17.24;100.00
4012;BME280;2020;48.682;9.024;2023-09-18T09:35:29;95992.09;;;17.27;100.00
4012;BME280;2020;48.682;9.024;2023-09-18T09:40:32;95993.50;;;17.22;100.00
4012;BME280;2020;48.682;9.024;2023-09-18T09:42:58;95994.75;;;17.13;100.00
4012;BME280;2020;48.682;9.024;2023-09-18T09:45:35;95993.53;;;17.16;100.00
4012;BME280;2020;48.682;9.024;2023-09-18T09:48:04;95976.53;;;17.18;100.00
4012;BME280;2020;48.682;9.024;2023-09-18T09:50:30;95972.91;;;17.19;100.00
4012;BME280;2020;48.682;9.024;2023-09-18T09:52:57;95976.72;;;17.17;100.00
4012;BME280;2020;48.682;9.024;2023-09-18T09:55:33;95963.00;;;17.15;100.00
4012;BME280;2020;48.682;9.024;2023-09-18T09:58:05;95970.50;;;17.11;100.00
4012;BME280;2020;48.682;9.024;2023-09-18T10:00:45;95978.56;;;17.16;100.00
4012;BME280;2020;48.682;9.024;2023-09-18T10:03:14;95961.25;;;17.02;100.00
4012;BME280;2020;48.682;9.024;2023-09-18T10:05:41;95966.69;;;17.07;100.00
4012;BME280;2020;48.682;9.024;2023-09-18T10:08:10;95972.13;;;17.12;100.00
4012;BME280;2020;48.682;9.024;2023-09-18T10:10:39;95975.59;;;17.06;100.00
4012;BME280;2020;48.682;9.024;2023-09-18T10:13:09;95984.66;;;17.10;100.00
4012;BME280;2020;48.682;9.024;2023-09-18T10:15:36;96051.81;;;17.06;100.00
4012;BME280;2020;48.682;9.024;2023-09-18T10:18:05;96041.31;;;16.99;100.00
4012;BME280;2020;48.682;9.024;2023-09-18T10:20:33;96052.84;;;17.05;100.00
4012;BME280;2020;48.682;9.024;2023-09-18T10:23:02;96042.13;;;17.00;100.00
4012;BME280;2020;48.682;9.024;2023-09-18T10:25:31;96055.25;;;16.93;100.00
4012;BME280;2020;48.682;9.024;2023-09-18T10:27:57;96061.94;;;16.95;100.00
4012;BME280;2020;48.682;9.024;2023-09-18T10:30:24;96066.38;;;17.02;100.00
4012;BME280;2020;48.682;9.024;2023-09-18T10:32:51;96065.16;;;17.04;100.00
4012;BME280;2020;48.682;9.024;2023-09-18T10:35:17;96059.94;;;16.98;100.00
4012;BME280;2020;48.682;9.024;2023-09-18T10:37:43;96047.78;;;16.90;100.00
4012;BME280;2020;48.682;9.024;2023-09-18T10:40:09;96047.78;;;16.96;100.00
4012;BME280;2020;48.682;9.024;2023-09-18T10:42:37;96038.47;;;16.94;100.00
4012;BME280;2020;48.682;9.024;2023-09-18T10:45:04;96038.50;;;17.01;100.00
4012;BME280;2020;48.682;9.024;2023-09-18T10:47:30;96027.16;;;17.00;100.00
4012;BME280;2020;48.682;9.024;2023-09-18T10:49:56;96024.13;;;16.96;100.00
4012;BME280;2020;48.682;9.024;2023-09-18T10:52:21;96019.06;;;17.02;100.00
4012;BME280;2020;48.682;9.024;2023-09-18T10:54:47;96006.53;;;16.97;100.00
4012;BME280;2020;48.682;9.024;2023-09-18T10:57:12;96015.44;;;17.03;100.00
4012;BME280;2020;48.682;9.024;2023-09-18T10:59:45;96006.34;;;16.99;100.00
4012;BME280;2020;48.682;9.024;2023-09-18T11:02:13;96028.75;;;17.08;100.00
4012;BME280;2020;48.682;9.024;2023-09-18T11:04:41;96017.84;;;17.04;100.00
4012;BME280;2020;48.682;9.024;2023-09-18T11:07:06;96017.84;;;17.11;100.00
4012;BME280;2020;48.682;9.024;2023-09-18T11:09:41;96041.69;;;17.16;100.00
4012;BME280;2020;48.682;9.024;2023-09-18T11:12:08;96046.53;;;17.19;100.00
4012;BME280;2020;48.682;9.024;2023-09-18T11:17:29;95981.47;;;16.94;100.00
4012;BME280;2020;48.682;9.024;2023-09-18T11:20:05;95975.41;;;17.01;100.00
4012;BME280;2020;48.682;9.024;2023-09-18T11:22:47;95995.19;;;16.96;100.00
4012;BME280;2020;48.682;9.024;2023-09-18T11:27:55;96033.22;;;17.01;100.00
4012;BME280;2020;48.682;9.024;2023-09-18T11:30:21;96033.19;;;17.07;100.00
4012;BME280;2020;48.682;9.024;2023-09-18T11:32:46;96048.16;;;17.14;100.00
4012;BME280;2020;48.682;9.024;2023-09-18T11:35:12;96041.25;;;17.19;100.00
4012;BME280;2020;48.682;9.024;2023-09-18T11:37:38;96025.06;;;17.22;100.00
4012;BME280;2020;48.682;9.024;2023-09-18T11:40:05;96033.13;;;17.28;100.00
4012;BME280;2020;48.682;9.024;2023-09-18T11:42:33;96029.91;;;17.32;100.00
4012;BME280;2020;48.682;9.024;2023-09-18T11:44:58;96046.47;;;17.33;100.00
4012;BME280;2020;48.682;9.024;2023-09-18T11:47:24;96045.22;;;17.42;98.98
4012;BME280;2020;48.682;9.024;2023-09-18T11:49:52;96045.25;;;17.35;99.51
4012;BME280;2020;48.682;9.024;2023-09-18T11:52:21;96030.69;;;17.33;97.83
4012;BME280;2020;48.682;9.024;2023-09-18T11:54:47;96045.22;;;17.42;99.48
4012;BME280;2020;48.682;9.024;2023-09-18T11:57:13;96053.09;;;17.42;96.61
4012;BME280;2020;48.682;9.024;2023-09-18T11:59:40;96065.84;;;17.45;96.08
4012;BME280;2020;48.682;9.024;2023-09-18T12:02:11;96052.09;;;17.43;94.17
4012;BME280;2020;48.682;9.024;2023-09-18T12:04:45;96046.41;;;17.46;93.44
4012;BME280;2020;48.682;9.024;2023-09-18T12:07:10;96017.28;;;17.48;94.44
4012;BME280;2020;48.682;9.024;2023-09-18T12:09:36;96016.03;;;17.50;94.40
4012;BME280;2020;48.682;9.024;2023-09-18T12:12:01;96018.91;;;17.49;92.89
4012;BME280;2020;48.682;9.024;2023-09-18T12:14:34;96015.19;;;17.57;93.23
4012;BME280;2020;48.682;9.024;2023-09-18T12:17:02;96024.53;;;17.52;92.27
4012;BME280;2020;48.682;9.024;2023-09-18T12:19:29;96010.75;;;17.57;93.32
4012;BME280;2020;48.682;9.024;2023-09-18T12:21:55;96012.31;;;17.65;93.56
4012;BME280;2020;48.682;9.024;2023-09-18T12:24:29;96000.53;;;17.74;92.18
4012;BME280;2020;48.682;9.024;2023-09-18T12:26:57;95993.81;;;17.78;91.22
4012;BME280;2020;48.682;9.024;2023-09-18T12:29:22;96002.47;;;17.86;91.75
4012;BME280;2020;48.682;9.024;2023-09-18T12:31:48;95996.78;;;17.89;90.67
4012;BME280;2020;48.682;9.024;2023-09-18T12:34:17;96001.56;;;18.05;90.74
4012;BME280;2020;48.682;9.024;2023-09-18T12:36:43;96002.66;;;18.23;89.51
4012;BME280;2020;48.682;9.024;2023-09-18T12:39:08;96010.91;;;18.52;88.52
4012;BME280;2020;48.682;9.024;2023-09-18T12:41:35;96020.16;;;18.61;87.61
4012;BME280;2020;48.682;9.024;2023-09-18T12:44:01;96012.41;;;18.66;87.32
4012;BME280;2020;48.682;9.024;2023-09-18T12:46:29;96004.78;;;18.58;84.77
4012;BME280;2020;48.682;9.024;2023-09-18T12:48:54;96006.38;;;18.59;85.45
4012;BME280;2020;48.682;9.024;2023-09-18T12:51:28;96015.63;;;18.68;86.97
4012;BME280;2020;48.682;9.024;2023-09-18T12:54:01;95990.56;;;18.59;84.02
4012;BME280;2020;48.682;9.024;2023-09-18T12:56:31;95995.84;;;18.59;85.31
4012;BME280;2020;48.682;9.024;2023-09-18T12:58:57;96009.16;;;18.64;85.58
4012;BME280;2020;48.682;9.024;2023-09-18T13:01:24;95981.94;;;18.70;83.09
4012;BME280;2020;48.682;9.024;2023-09-18T13:03:49;95985.16;;;18.91;83.92
4012;BME280;2020;48.682;9.024;2023-09-18T13:06:18;95974.41;;;18.93;82.51
4012;BME280;2020;48.682;9.024;2023-09-18T13:08:44;95974.94;;;19.02;81.22
4012;BME280;2020;48.682;9.024;2023-09-18T13:11:10;95959.97;;;18.95;81.04
4012;BME280;2020;48.682;9.024;2023-09-18T13:13:40;95959.09;;;18.83;80.90
4012;BME280;2020;48.682;9.024;2023-09-18T13:16:07;95952.50;;;18.92;82.20
4012;BME280;2020;48.682;9.024;2023-09-18T13:18:34;95969.94;;;18.93;81.37
4012;BME280;2020;48.682;9.024;2023-09-18T13:20:59;95970.03;;;18.87;80.74
4012;BME280;2020;48.682;9.024;2023-09-18T13:23:29;95977.56;;;19.02;81.30